createdAt,value
2022-12-28T00:00:12.538Z,28.10
2022-12-28T00:02:52.356Z,22.60
2022-12-28T00:05:23.093Z,22.85
2022-12-28T00:07:54.100Z,22.60
2022-12-28T00:11:07.812Z,24.60
2022-12-28T00:12:58.425Z,23.67
2022-12-28T00:15:29.237Z,20.72
2022-12-28T00:18:01.139Z,19.80
2022-12-28T00:20:52.233Z,31.93
2022-12-28T00:23:22.948Z,22.25
2022-12-28T00:25:54.358Z,22.20
2022-12-28T00:28:25.095Z,19.12
2022-12-28T00:30:57.114Z,19.82
2022-12-28T00:33:27.766Z,18.80
2022-12-28T00:36:03.535Z,16.45
2022-12-28T00:38:34.491Z,31.62
2022-12-28T00:41:05.891Z,18.67
2022-12-28T00:43:36.974Z,22.93
2022-12-28T00:46:08.010Z,26.30
2022-12-28T00:48:38.837Z,22.17
2022-12-28T00:51:12.464Z,21.93
2022-12-28T00:53:43.564Z,24.15
2022-12-28T00:56:18.764Z,26.75
2022-12-28T00:58:49.634Z,24.95
2022-12-28T01:01:24.052Z,25.27
2022-12-28T01:03:56.335Z,29.23
2022-12-28T01:06:27.286Z,24.23
2022-12-28T01:08:58.545Z,21.52
2022-12-28T01:11:32.614Z,21.87
2022-12-28T01:14:05.727Z,21.23
2022-12-28T01:16:38.570Z,21.27
2022-12-28T01:19:10.149Z,17.27
2022-12-28T01:21:42.694Z,17.90
2022-12-28T01:24:13.367Z,20.15
2022-12-28T01:26:45.924Z,20.52
2022-12-28T01:29:16.155Z,15.55
2022-12-28T01:31:46.914Z,19.50
2022-12-28T01:34:17.584Z,19.45
2022-12-28T01:36:49.384Z,18.37
2022-12-28T01:39:22.903Z,19.10
2022-12-28T01:41:53.627Z,12.25
2022-12-28T01:44:32.394Z,9.48
2022-12-28T01:47:09.312Z,11.73
2022-12-28T01:49:58.811Z,12.07
2022-12-28T01:52:37.804Z,12.53
2022-12-28T01:55:18.370Z,15.78
2022-12-28T01:58:00.415Z,11.73
2022-12-28T02:00:31.821Z,9.80
2022-12-28T02:03:14.134Z,11.48
2022-12-28T02:05:50.742Z,13.72
2022-12-28T02:08:24.510Z,10.88
2022-12-28T02:10:56.099Z,14.33
2022-12-28T02:13:28.465Z,12.33
2022-12-28T02:15:59.186Z,11.33
2022-12-28T02:18:30.754Z,16.52
2022-12-28T02:21:32.409Z,17.37
2022-12-28T02:24:18.038Z,17.65
2022-12-28T02:27:16.827Z,14.98
2022-12-28T02:30:02.423Z,14.13
2022-12-28T02:32:52.841Z,13.50
2022-12-28T02:35:51.128Z,14.00
2022-12-28T02:38:25.530Z,14.53
2022-12-28T02:40:58.862Z,13.60
2022-12-28T02:43:29.904Z,16.45
2022-12-28T02:46:17.838Z,17.15
2022-12-28T02:49:07.600Z,17.05
2022-12-28T02:51:43.799Z,18.87
2022-12-28T02:54:57.248Z,21.83
2022-12-28T02:57:54.681Z,19.67
2022-12-28T03:00:30.769Z,21.50
2022-12-28T03:03:25.382Z,20.17
2022-12-28T03:06:19.533Z,15.63
2022-12-28T03:09:03.764Z,23.95
2022-12-28T03:11:49.130Z,18.15
2022-12-28T03:14:39.412Z,14.93
2022-12-28T03:17:40.252Z,16.50
2022-12-28T03:20:34.279Z,20.27
2022-12-28T03:23:25.441Z,14.45
2022-12-28T03:26:18.024Z,16.87
2022-12-28T03:29:07.569Z,15.80
2022-12-28T03:31:39.427Z,15.55
2022-12-28T03:34:14.322Z,16.70
2022-12-28T03:36:47.653Z,14.10
2022-12-28T03:39:33.051Z,22.10
2022-12-28T03:42:29.932Z,17.27
2022-12-28T03:45:03.179Z,20.35
2022-12-28T03:47:36.150Z,14.45
2022-12-28T03:50:09.372Z,14.65
2022-12-28T03:52:40.245Z,12.18
2022-12-28T03:55:13.179Z,15.65
2022-12-28T03:57:44.418Z,17.90
2022-12-28T04:00:15.376Z,17.98
2022-12-28T04:02:46.782Z,15.38
2022-12-28T04:05:36.353Z,16.48
2022-12-28T04:08:07.390Z,15.43
2022-12-28T04:10:38.195Z,14.83
2022-12-28T04:13:10.019Z,13.72
2022-12-28T04:15:42.313Z,16.42
2022-12-28T04:18:13.115Z,16.25
2022-12-28T04:20:44.637Z,16.10
2022-12-28T04:23:17.678Z,14.65
2022-12-28T04:25:49.677Z,15.98
2022-12-28T04:28:20.385Z,14.25
2022-12-28T04:30:53.353Z,14.03
2022-12-28T04:33:23.742Z,14.78
2022-12-28T04:35:54.581Z,15.20
2022-12-28T04:38:27.197Z,12.68
2022-12-28T04:40:57.728Z,11.25
2022-12-28T04:43:29.997Z,13.72
2022-12-28T04:46:03.110Z,15.38
2022-12-28T04:48:34.666Z,13.55
2022-12-28T04:51:14.324Z,10.03
2022-12-28T04:53:45.826Z,10.45
2022-12-28T04:56:18.640Z,9.68
2022-12-28T04:58:49.862Z,11.88
2022-12-28T05:01:24.746Z,14.75
2022-12-28T05:04:00.189Z,13.28
2022-12-28T05:06:31.143Z,11.97
2022-12-28T05:09:02.052Z,13.30
2022-12-28T05:11:33.945Z,14.98
2022-12-28T05:14:04.925Z,16.50
2022-12-28T05:16:35.885Z,13.65
2022-12-28T05:19:06.702Z,10.43
2022-12-28T05:21:37.705Z,11.85
2022-12-28T05:24:09.203Z,10.95
2022-12-28T05:26:40.570Z,11.88
2022-12-28T05:29:11.576Z,11.53
2022-12-28T05:31:42.993Z,14.73
2022-12-28T05:34:13.783Z,15.48
2022-12-28T05:36:49.988Z,11.60
2022-12-28T05:39:22.001Z,10.38
2022-12-28T05:41:52.727Z,13.03
2022-12-28T05:44:23.910Z,11.10
2022-12-28T05:46:56.926Z,12.80
2022-12-28T05:49:27.805Z,11.75
2022-12-28T05:51:59.789Z,10.80
2022-12-28T05:54:30.809Z,10.48
2022-12-28T05:57:02.779Z,8.78
2022-12-28T05:59:33.703Z,9.45
2022-12-28T06:02:05.260Z,8.03
2022-12-28T06:04:37.665Z,9.93
2022-12-28T06:07:09.254Z,10.70
2022-12-28T06:09:42.086Z,9.73
2022-12-28T06:12:15.913Z,12.23
2022-12-28T06:14:50.350Z,11.12
2022-12-28T06:17:21.805Z,10.32
2022-12-28T06:19:55.788Z,11.10
2022-12-28T06:22:26.969Z,9.80
2022-12-28T06:24:58.539Z,11.95
2022-12-28T06:27:30.684Z,8.58
2022-12-28T06:30:02.997Z,12.18
2022-12-28T06:32:40.194Z,12.40
2022-12-28T06:35:16.263Z,9.45
2022-12-28T06:37:49.667Z,9.48
2022-12-28T06:40:28.385Z,12.35
2022-12-28T06:42:57.603Z,10.78
2022-12-28T06:45:31.118Z,7.87
2022-12-28T06:48:06.069Z,10.93
2022-12-28T06:50:40.144Z,10.63
2022-12-28T06:53:14.541Z,11.93
2022-12-28T06:59:04.341Z,9.25
2022-12-28T07:01:47.591Z,10.55
2022-12-28T07:04:21.917Z,11.03
2022-12-28T07:06:55.549Z,10.08
2022-12-28T07:09:35.410Z,9.43
2022-12-28T07:12:09.232Z,9.15
2022-12-28T07:14:43.031Z,8.58
2022-12-28T07:17:16.439Z,7.90
2022-12-28T07:19:52.736Z,8.65
2022-12-28T07:22:28.717Z,11.30
2022-12-28T07:25:00.744Z,9.38
2022-12-28T07:27:31.900Z,10.45
2022-12-28T07:30:26.172Z,11.30
2022-12-28T07:32:50.949Z,9.10
2022-12-28T07:35:25.869Z,8.98
2022-12-28T07:37:59.572Z,8.30
2022-12-28T07:40:31.330Z,11.88
2022-12-28T07:43:05.074Z,9.18
2022-12-28T07:45:39.891Z,7.42
2022-12-28T07:48:11.081Z,8.38
2022-12-28T07:50:46.481Z,9.90
2022-12-28T07:53:21.936Z,10.03
2022-12-28T07:56:02.164Z,8.35
2022-12-28T07:58:35.603Z,7.72
2022-12-28T08:01:10.678Z,10.30
2022-12-28T08:03:42.863Z,11.15
2022-12-28T08:06:17.493Z,9.50
2022-12-28T08:08:57.544Z,8.33
2022-12-28T08:11:43.040Z,8.03
2022-12-28T08:14:09.227Z,9.58
2022-12-28T08:16:47.575Z,10.18
2022-12-28T08:19:18.434Z,9.50
2022-12-28T08:21:52.426Z,8.18
2022-12-28T08:24:25.301Z,9.40
2022-12-28T08:26:56.019Z,10.75
2022-12-28T08:29:34.773Z,10.90
2022-12-28T08:32:05.597Z,14.83
2022-12-28T08:34:38.872Z,12.10
2022-12-28T08:37:11.734Z,9.70
2022-12-28T08:39:43.327Z,12.03
2022-12-28T08:42:17.187Z,10.93
2022-12-28T08:45:07.032Z,9.90
2022-12-28T08:47:34.793Z,9.53
2022-12-28T08:50:05.452Z,11.43
2022-12-28T08:52:36.126Z,10.20
2022-12-28T08:55:25.945Z,10.38
2022-12-28T08:57:56.427Z,10.20
2022-12-28T09:00:27.126Z,10.03
2022-12-28T09:03:01.160Z,8.58
2022-12-28T09:05:39.197Z,9.08
2022-12-28T09:08:04.509Z,10.55
2022-12-28T09:10:35.296Z,11.03
2022-12-28T09:13:13.623Z,9.08
2022-12-28T09:15:42.535Z,10.40
2022-12-28T09:18:21.465Z,11.18
2022-12-28T09:20:52.328Z,10.78
2022-12-28T09:23:26.623Z,10.68
2022-12-28T09:26:00.884Z,12.05
2022-12-28T09:28:31.480Z,9.98
2022-12-28T09:31:05.853Z,12.53
2022-12-28T09:34:34.301Z,9.88
2022-12-28T09:36:40.445Z,9.13
2022-12-28T09:39:15.261Z,11.88
2022-12-28T09:42:03.829Z,11.95
2022-12-28T09:44:43.162Z,12.18
2022-12-28T09:47:22.718Z,11.00
2022-12-28T09:50:08.173Z,11.57
2022-12-28T09:52:49.806Z,14.53
2022-12-28T09:55:21.847Z,15.30
2022-12-28T09:57:55.144Z,14.18
2022-12-28T10:00:44.595Z,15.72
2022-12-28T10:03:24.757Z,17.62
2022-12-28T10:05:59.461Z,20.65
2022-12-28T10:08:42.059Z,18.90
2022-12-28T10:11:15.194Z,33.48
2022-12-28T10:13:56.165Z,45.33
2022-12-28T10:16:22.455Z,14.98
2022-12-28T10:18:53.952Z,13.70
2022-12-28T10:24:33.056Z,19.37
2022-12-28T10:26:50.422Z,30.75
2022-12-28T10:29:25.536Z,24.70
2022-12-28T10:32:16.344Z,22.22
2022-12-28T10:35:06.373Z,37.40
2022-12-28T10:37:39.304Z,25.35
2022-12-28T10:40:12.821Z,29.57
2022-12-28T10:42:48.895Z,28.50
2022-12-28T10:45:22.421Z,26.73
2022-12-28T10:48:01.808Z,23.30
2022-12-28T10:50:57.543Z,19.35
2022-12-28T10:53:43.028Z,11.33
2022-12-28T10:56:24.923Z,10.98
2022-12-28T10:59:18.503Z,20.05
2022-12-28T11:01:52.698Z,14.87
2022-12-28T11:04:25.061Z,18.00
2022-12-28T11:07:03.906Z,16.77
2022-12-28T11:09:37.144Z,23.38
2022-12-28T11:12:29.866Z,24.15
2022-12-28T11:18:24.728Z,15.88
2022-12-28T11:21:00.015Z,17.75
2022-12-28T11:23:36.037Z,20.52
2022-12-28T11:26:06.964Z,21.77
2022-12-28T11:28:38.131Z,22.98
2022-12-28T11:31:12.265Z,17.35
2022-12-28T11:33:45.750Z,22.25
2022-12-28T11:36:22.017Z,18.57
2022-12-28T11:38:55.128Z,19.00
2022-12-28T11:41:34.095Z,17.02
2022-12-28T11:44:09.770Z,18.70
2022-12-28T11:46:42.648Z,17.73
2022-12-28T11:49:34.241Z,17.15
2022-12-28T11:52:24.783Z,19.45
2022-12-28T11:54:57.673Z,22.32
2022-12-28T11:57:39.792Z,28.25
2022-12-28T12:00:25.246Z,22.37
2022-12-28T12:02:58.928Z,20.32
2022-12-28T12:05:44.464Z,15.83
2022-12-28T12:08:17.782Z,21.42
2022-12-28T12:10:50.894Z,27.50
2022-12-28T12:13:33.145Z,18.57
2022-12-28T12:16:09.736Z,21.75
2022-12-28T12:18:58.402Z,23.10
2022-12-28T12:21:41.043Z,21.57
2022-12-28T12:24:28.922Z,20.17
2022-12-28T12:27:04.084Z,21.27
2022-12-28T12:29:45.250Z,21.60
2022-12-28T12:32:23.032Z,26.65
2022-12-28T12:34:59.173Z,23.85
2022-12-28T12:38:06.899Z,25.17
2022-12-28T12:40:49.227Z,26.10
2022-12-28T12:43:34.395Z,27.87
2022-12-28T12:46:36.400Z,28.30
2022-12-28T12:49:26.065Z,26.97
2022-12-28T12:52:04.864Z,28.27
2022-12-28T12:55:00.334Z,22.85
2022-12-28T12:57:45.440Z,21.93
2022-12-28T13:00:25.315Z,21.77
2022-12-28T13:03:22.999Z,22.55
2022-12-28T13:05:58.472Z,22.80
2022-12-28T13:08:31.703Z,25.08
2022-12-28T13:11:04.182Z,21.77
2022-12-28T13:13:37.423Z,22.48
2022-12-28T13:16:16.448Z,22.05
2022-12-28T13:19:05.092Z,24.35
2022-12-28T13:21:58.873Z,24.90
2022-12-28T13:24:31.526Z,24.02
2022-12-28T13:27:10.598Z,25.08
2022-12-28T13:29:38.937Z,25.88
2022-12-28T13:32:37.559Z,24.47
2022-12-28T13:35:07.965Z,25.10
2022-12-28T13:37:39.967Z,23.87
2022-12-28T13:40:20.057Z,35.45
2022-12-28T13:43:09.524Z,35.80
2022-12-28T13:45:40.383Z,37.95
2022-12-28T13:48:11.272Z,38.30
2022-12-28T13:50:43.574Z,36.65
2022-12-28T13:53:22.825Z,33.28
2022-12-28T13:55:59.039Z,32.80
2022-12-28T13:58:42.533Z,22.27
2022-12-28T14:01:23.103Z,23.98
2022-12-28T14:04:51.341Z,26.30
2022-12-28T14:06:51.206Z,23.20
2022-12-28T14:09:25.589Z,23.90
2022-12-28T14:12:08.800Z,27.98
2022-12-28T14:14:40.354Z,24.20
2022-12-28T14:17:11.903Z,24.30
2022-12-28T14:19:52.443Z,29.15
2022-12-28T14:22:40.538Z,27.27
2022-12-28T14:25:16.980Z,26.23
2022-12-28T14:28:00.192Z,24.37
2022-12-28T14:30:42.552Z,25.80
2022-12-28T14:33:24.695Z,26.35
2022-12-28T14:35:57.139Z,36.30
2022-12-28T14:38:29.890Z,35.75
2022-12-28T14:41:04.143Z,30.10
2022-12-28T14:43:39.301Z,32.40
2022-12-28T14:46:22.045Z,31.02
2022-12-28T14:48:52.931Z,28.50
2022-12-28T14:51:31.275Z,30.23
2022-12-28T14:54:19.822Z,27.22
2022-12-28T14:57:18.549Z,26.00
2022-12-28T14:59:51.968Z,26.85
2022-12-28T15:02:41.902Z,28.90
2022-12-28T15:05:37.591Z,24.90
2022-12-28T15:08:08.774Z,28.60
2022-12-28T15:11:00.099Z,29.18
2022-12-28T15:13:30.895Z,29.65
2022-12-28T15:16:03.834Z,24.27
2022-12-28T15:18:35.221Z,25.55
2022-12-28T15:21:09.330Z,26.60
2022-12-28T15:23:40.010Z,25.10
2022-12-28T15:26:13.471Z,26.45
2022-12-28T15:28:44.769Z,28.00
2022-12-28T15:31:19.817Z,27.35
2022-12-28T15:33:51.798Z,25.12
2022-12-28T15:36:25.563Z,23.27
2022-12-28T15:38:58.828Z,24.63
2022-12-28T15:41:52.087Z,26.50
2022-12-28T15:44:21.991Z,24.92
2022-12-28T15:46:55.808Z,20.90
2022-12-28T15:49:29.073Z,23.65
2022-12-28T15:52:02.075Z,20.85
2022-12-28T15:54:32.761Z,26.10
2022-12-28T15:57:06.336Z,27.60
2022-12-28T15:59:37.661Z,26.17
2022-12-28T16:02:08.650Z,29.12
2022-12-28T16:04:39.617Z,29.92
2022-12-28T16:07:10.335Z,22.27
2022-12-28T16:09:41.435Z,22.50
2022-12-28T16:12:12.145Z,26.37
2022-12-28T16:14:42.991Z,26.93
2022-12-28T16:17:13.756Z,35.00
2022-12-28T16:20:03.231Z,23.85
2022-12-28T16:22:34.139Z,27.40
2022-12-28T16:25:07.857Z,27.42
2022-12-28T16:27:38.624Z,25.82
2022-12-28T16:30:10.372Z,26.10
2022-12-28T16:33:03.678Z,27.55
2022-12-28T16:35:57.562Z,26.40
2022-12-28T16:38:28.879Z,23.22
2022-12-28T16:40:59.772Z,25.35
2022-12-28T16:43:32.737Z,26.27
2022-12-28T16:46:08.103Z,23.22
2022-12-28T16:51:36.349Z,25.77
2022-12-28T16:54:09.982Z,22.93
2022-12-28T16:56:42.300Z,23.62
2022-12-28T16:59:21.023Z,24.10
2022-12-28T17:02:07.258Z,23.05
2022-12-28T17:04:38.731Z,21.45
2022-12-28T17:07:09.563Z,21.90
2022-12-28T17:09:45.341Z,23.10
2022-12-28T17:15:11.795Z,23.27
2022-12-28T17:17:42.584Z,19.12
2022-12-28T17:20:13.906Z,22.42
2022-12-28T17:22:46.014Z,17.42
2022-12-28T17:25:18.299Z,18.95
2022-12-28T17:27:48.997Z,19.25
2022-12-28T17:30:19.692Z,19.25
2022-12-28T17:32:50.457Z,16.70
2022-12-28T17:35:21.343Z,19.32
2022-12-28T17:37:52.020Z,15.88
2022-12-28T17:40:23.130Z,21.33
2022-12-28T17:42:55.161Z,18.42
2022-12-28T17:45:25.827Z,13.32
2022-12-28T17:47:56.514Z,15.90
2022-12-28T17:50:27.317Z,18.02
2022-12-28T17:52:57.985Z,12.65
2022-12-28T17:55:31.860Z,14.05
2022-12-28T17:58:02.549Z,16.50
2022-12-28T18:00:33.351Z,14.58
2022-12-28T18:03:04.835Z,15.10
2022-12-28T18:05:36.609Z,14.53
2022-12-28T18:08:09.049Z,15.80
2022-12-28T18:10:39.790Z,11.80
2022-12-28T18:13:11.057Z,16.87
2022-12-28T18:15:41.849Z,14.45
2022-12-28T18:18:12.818Z,15.38
2022-12-28T18:20:46.415Z,16.75
2022-12-28T18:23:17.088Z,15.05
2022-12-28T18:25:47.826Z,12.10
2022-12-28T18:28:20.238Z,12.10
2022-12-28T18:30:50.643Z,14.70
2022-12-28T18:33:21.400Z,12.10
2022-12-28T18:36:03.733Z,11.30
2022-12-28T18:38:35.987Z,13.80
2022-12-28T18:41:06.999Z,17.95
2022-12-28T18:43:37.958Z,16.00
2022-12-28T18:46:13.065Z,16.50
2022-12-28T18:48:44.501Z,13.43
2022-12-28T18:51:19.395Z,13.10
2022-12-28T18:53:54.088Z,13.03
2022-12-28T18:56:27.761Z,14.18
2022-12-28T18:59:00.018Z,14.38
2022-12-28T19:04:03.798Z,13.85
2022-12-28T19:06:38.695Z,11.65
2022-12-28T19:09:12.877Z,14.05
2022-12-28T19:11:43.737Z,13.08
2022-12-28T19:14:19.371Z,12.03
2022-12-28T19:16:49.757Z,12.65
2022-12-28T19:19:21.535Z,12.80
2022-12-28T19:21:58.226Z,13.88
2022-12-28T19:24:24.378Z,12.73
2022-12-28T19:26:55.136Z,9.90
2022-12-28T19:29:25.816Z,13.43
2022-12-28T19:31:57.347Z,12.13
2022-12-28T19:34:28.091Z,11.03
2022-12-28T19:36:58.771Z,10.88
2022-12-28T19:39:34.770Z,12.13
2022-12-28T19:42:05.453Z,8.78
2022-12-28T19:44:38.175Z,9.58
2022-12-28T19:47:08.900Z,9.05
2022-12-28T19:49:39.599Z,12.13
2022-12-28T19:52:10.267Z,9.93
2022-12-28T19:54:40.944Z,10.20
2022-12-28T19:57:11.624Z,10.75
2022-12-28T19:59:42.292Z,11.90
2022-12-28T20:02:14.282Z,11.57
2022-12-28T20:04:45.033Z,10.60
2022-12-28T20:07:15.689Z,11.30
2022-12-28T20:09:46.404Z,10.78
2022-12-28T20:12:18.398Z,11.30
2022-12-28T20:14:49.058Z,16.37
2022-12-28T20:17:19.830Z,10.60
2022-12-28T20:19:50.599Z,11.28
2022-12-28T20:22:21.330Z,10.32
2022-12-28T20:24:52.072Z,12.50
2022-12-28T20:27:24.112Z,10.70
2022-12-28T20:29:54.990Z,12.37
2022-12-28T20:32:25.835Z,10.43
2022-12-28T20:34:56.627Z,12.07
2022-12-28T20:37:27.787Z,10.93
2022-12-28T20:39:58.444Z,14.85
2022-12-28T20:42:47.815Z,13.08
2022-12-28T20:45:18.630Z,9.73
2022-12-28T20:47:49.283Z,10.43
2022-12-28T20:50:20.185Z,11.60
2022-12-28T20:52:52.133Z,9.80
2022-12-28T20:55:27.293Z,9.85
2022-12-28T20:57:58.052Z,8.85
2022-12-28T21:00:28.875Z,9.55
2022-12-28T21:03:00.109Z,11.18
2022-12-28T21:05:30.763Z,9.68
2022-12-28T21:08:01.419Z,12.07
2022-12-28T21:10:32.111Z,13.38
2022-12-28T21:13:02.799Z,16.45
2022-12-28T21:15:33.494Z,11.03
2022-12-28T21:18:04.184Z,12.37
2022-12-28T21:20:38.967Z,12.78
2022-12-28T21:23:06.998Z,9.40
2022-12-28T21:25:37.639Z,9.03
2022-12-28T21:28:08.600Z,11.88
2022-12-28T21:30:39.324Z,11.88
2022-12-28T21:33:10.789Z,10.95
2022-12-28T21:35:41.732Z,11.33
2022-12-28T21:38:12.691Z,11.18
2022-12-28T21:40:43.379Z,9.83
2022-12-28T21:43:14.080Z,10.70
2022-12-28T21:45:44.755Z,8.50
2022-12-28T21:48:16.936Z,12.35
2022-12-28T21:50:47.577Z,10.48
2022-12-28T21:53:18.240Z,14.03
2022-12-28T21:55:49.108Z,9.38
2022-12-28T21:58:19.758Z,10.53
2022-12-28T22:01:08.176Z,13.75
2022-12-28T22:03:56.513Z,8.58
2022-12-28T22:06:27.196Z,10.05
2022-12-28T22:09:15.311Z,9.90
2022-12-28T22:12:03.536Z,12.40
2022-12-28T22:14:34.225Z,12.78
2022-12-28T22:17:08.379Z,14.35
2022-12-28T22:19:36.913Z,11.57
2022-12-28T22:22:07.606Z,14.75
2022-12-28T22:24:38.267Z,14.10
2022-12-28T22:27:08.970Z,18.95
2022-12-28T22:29:39.655Z,14.58
2022-12-28T22:32:10.435Z,15.40
2022-12-28T22:34:41.573Z,12.33
2022-12-28T22:37:13.652Z,16.75
2022-12-28T22:39:44.540Z,13.08
2022-12-28T22:42:16.731Z,16.62
2022-12-28T22:44:47.543Z,10.75
2022-12-28T22:47:18.222Z,14.75
2022-12-28T22:49:48.891Z,12.37
2022-12-28T22:52:19.591Z,17.67
2022-12-28T22:54:50.260Z,14.90
2022-12-28T22:57:20.993Z,12.70
2022-12-28T22:59:51.632Z,12.73
2022-12-28T23:02:22.720Z,15.60
2022-12-28T23:04:53.706Z,19.17
2022-12-28T23:07:24.407Z,13.08
2022-12-28T23:09:55.072Z,12.95
2022-12-28T23:12:25.868Z,14.35
2022-12-28T23:15:13.605Z,13.28
2022-12-28T23:17:44.687Z,12.37
2022-12-28T23:20:33.211Z,13.78
2022-12-28T23:23:05.252Z,13.85
2022-12-28T23:25:53.344Z,20.48
2022-12-28T23:28:24.056Z,12.93
2022-12-28T23:30:56.879Z,15.90
2022-12-28T23:33:27.597Z,15.45
2022-12-28T23:35:58.323Z,15.80
2022-12-28T23:38:29.637Z,20.57
2022-12-28T23:41:17.578Z,18.80
2022-12-28T23:43:48.250Z,22.42
2022-12-28T23:46:19.016Z,23.57
2022-12-28T23:48:49.711Z,23.77
2022-12-28T23:51:20.610Z,22.98
2022-12-28T23:53:51.276Z,23.98
2022-12-28T23:56:21.937Z,23.05
2022-12-28T23:58:52.822Z,24.90
